Time;durP1;ratioP1;P1;durP2;ratioP2;P2;SDS_P1;SDS_P2;PMS_P1;PMS_P2;Temp;Humidity;BMP_temperature;BMP_pressure;BME280_temperature;BME280_humidity;BME280_pressure;Samples;Min_cycle;Max_cycle;Signal;HPM_P1;HPM_P2
2022/04/14 00:00:33;;;;;;;;;51.50;42.50;;;;;6.25;79.84;100120.28;6275625;20;2872206;-51
2022/04/14 00:03:02;;;;;;;;;58.50;48.00;;;;;6.30;79.85;100115.66;6279888;20;2868012;-54
2022/04/14 00:05:32;;;;;;;;;63.50;50.00;;;;;6.41;78.72;100117.06;6280813;20;2865882;-55
2022/04/14 00:08:00;;;;;;;;;59.00;48.00;;;;;6.83;77.03;100111.84;6281730;20;2861779;-53
2022/04/14 00:10:29;;;;;;;;;55.00;47.00;;;;;6.42;79.21;100106.31;6277894;20;2846106;-56
2022/04/14 00:12:58;;;;;;;;;57.50;45.00;;;;;6.43;78.62;100104.53;6279243;20;2860782;-50
2022/04/14 00:15:28;;;;;;;;;52.00;42.00;;;;;6.20;79.88;100100.06;6278143;20;2875239;-56
2022/04/14 00:17:57;;;;;;;;;60.50;47.00;;;;;5.89;81.48;100096.66;6312937;20;2866914;-55
2022/04/14 00:20:26;;;;;;;;;69.00;57.00;;;;;5.94;81.43;100094.72;6276919;20;2872278;-54
2022/04/14 00:22:56;;;;;;;;;72.00;52.00;;;;;6.12;81.66;100097.66;6281321;20;3638755;-55
2022/04/14 00:25:26;;;;;;;;;63.33;45.33;;;;;6.11;81.38;100101.28;6311639;20;2881550;-55
2022/04/14 00:27:55;;;;;;;;;49.00;41.50;;;;;6.76;77.26;100092.53;6309342;20;2868027;-54
2022/04/14 00:30:24;;;;;;;;;48.50;40.00;;;;;6.87;76.21;100096.59;6278454;20;2862833;-54
2022/04/14 00:32:53;;;;;;;;;52.50;41.50;;;;;6.49;77.21;100097.16;6280662;20;2861751;-53
2022/04/14 00:35:22;;;;;;;;;46.00;41.00;;;;;6.21;79.08;100099.13;6281158;20;2853380;-55
2022/04/14 00:37:51;;;;;;;;;57.00;41.67;;;;;6.67;76.41;100094.72;6280014;20;3628366;-53
2022/04/14 00:40:21;;;;;;;;;45.00;38.33;;;;;6.80;75.46;100094.16;6309849;20;2865988;-52
2022/04/14 00:42:51;;;;;;;;;42.00;39.00;;;;;6.31;77.21;100088.03;6311209;20;2858692;-54
2022/04/14 00:45:20;;;;;;;;;46.00;33.67;;;;;6.26;78.28;100079.34;6311329;20;3640892;-54
2022/04/14 00:47:53;;;;;;;;;45.33;39.67;;;;;6.47;78.68;100087.47;6311030;20;2871226;-53
2022/04/14 00:50:23;;;;;;;;;44.00;35.00;;;;;5.81;80.35;100090.72;6309361;20;2863925;-55
2022/04/14 00:52:55;;;;;;;;;44.67;36.33;;;;;5.64;82.54;100090.47;6307981;20;3608577;-54
2022/04/14 00:55:24;;;;;;;;;47.67;41.00;;;;;5.68;81.84;100084.97;6309637;20;3616876;-53
2022/04/14 00:57:54;;;;;;;;;47.00;40.00;;;;;6.17;80.04;100093.03;6315234;20;2852884;-53
2022/04/14 01:00:23;;;;;;;;;45.50;39.50;;;;;5.96;80.72;100085.84;6282616;20;2868990;-54
2022/04/14 01:02:55;;;;;;;;;44.00;40.00;;;;;5.76;81.23;100095.34;6284656;20;2796138;-53
2022/04/14 01:05:24;;;;;;;;;48.00;41.50;;;;;6.10;80.00;100088.84;6276177;20;2499227;-55
2022/04/14 01:07:57;;;;;;;;;55.00;42.67;;;;;5.88;81.34;100094.94;6286249;20;2881575;-60
2022/04/14 01:10:28;;;;;;;;;58.33;42.67;;;;;5.56;82.66;100095.19;6311242;20;2874342;-53
2022/04/14 01:12:58;;;;;;;;;56.50;45.50;;;;;6.21;78.79;100099.97;6309793;20;2856585;-53
2022/04/14 01:15:28;;;;;;;;;55.67;40.67;;;;;6.17;79.77;100100.16;6281966;20;2886842;-54
2022/04/14 01:17:57;;;;;;;;;54.00;42.33;;;;;5.58;81.97;100096.00;6314492;20;2875287;-56
2022/04/14 01:20:25;;;;;;;;;55.00;43.50;;;;;5.64;81.59;100080.69;6311627;20;2489862;-52
2022/04/14 01:22:59;;;;;;;;;50.67;41.00;;;;;5.37;83.30;100082.50;6283587;20;2865865;-52
2022/04/14 01:25:29;;;;;;;;;55.00;46.50;;;;;5.41;83.29;100089.47;6314127;20;2857140;-54
2022/04/14 01:27:57;;;;;;;;;58.00;46.00;;;;;5.18;84.35;100089.34;6282205;20;2497129;-56
2022/04/14 01:30:26;;;;;;;;;58.00;47.00;;;;;5.35;83.02;100081.69;6280634;20;2849234;-53
2022/04/14 01:32:54;;;;;;;;;63.00;50.00;;;;;4.85;85.49;100086.88;6280414;20;2500364;-53
2022/04/14 01:35:24;;;;;;;;;64.50;51.50;;;;;4.98;86.90;100085.56;6284905;20;2854440;-53
2022/04/14 01:37:53;;;;;;;;;61.00;49.00;;;;;4.95;86.28;100085.69;6282897;20;2866943;-54
2022/04/14 01:40:22;;;;;;;;;61.00;47.00;;;;;4.89;86.54;100088.50;6283809;20;2862777;-54
2022/04/14 01:42:51;;;;;;;;;64.00;48.50;;;;;5.10;85.52;100080.75;6282990;20;2871246;-54
2022/04/14 01:45:20;;;;;;;;;61.00;48.00;;;;;4.76;87.35;100088.03;6284207;20;2852413;-49
2022/04/14 01:47:49;;;;;;;;;56.00;45.50;;;;;5.01;85.44;100088.13;6283492;20;2862732;-54
2022/04/14 01:50:19;;;;;;;;;55.00;46.67;;;;;4.98;86.26;100090.03;6280724;20;2877502;-55
2022/04/14 01:52:47;;;;;;;;;57.50;45.50;;;;;4.66;87.63;100089.25;6312309;20;2842963;-52
2022/04/14 01:55:17;;;;;;;;;52.33;41.00;;;;;4.42;88.82;100082.00;6283056;20;2879515;-54
2022/04/14 01:57:46;;;;;;;;;48.00;40.00;;;;;4.58;87.24;100081.50;6312804;20;2865893;-55
2022/04/14 02:00:17;;;;;;;;;47.67;40.33;;;;;4.45;88.43;100085.47;6282539;20;2868055;-52
2022/04/14 02:02:45;;;;;;;;;46.00;42.50;;;;;4.77;88.13;100091.56;6314453;20;2856592;-53
2022/04/14 02:05:13;;;;;;;;;43.00;41.50;;;;;4.70;86.63;100084.69;6279522;20;2493069;-56
2022/04/14 02:07:41;;;;;;;;;57.50;46.50;;;;;4.66;86.73;100089.25;6280861;20;2493060;-54
2022/04/14 02:10:13;;;;;;;;;46.50;38.00;;;;;4.62;87.59;100091.13;6280499;20;2863829;-54
2022/04/14 02:12:45;;;;;;;;;43.00;38.00;;;;;4.96;85.20;100078.56;6281734;20;2867045;-54
2022/04/14 02:15:14;;;;;;;;;37.50;37.00;;;;;4.80;85.52;100079.03;6313717;20;2853476;-53
2022/04/14 02:17:43;;;;;;;;;44.00;39.00;;;;;4.78;84.32;100082.66;6280153;20;2852328;-56
2022/04/14 02:20:12;;;;;;;;;52.50;40.00;;;;;4.33;86.57;100089.34;6277228;20;2866000;-53
2022/04/14 02:22:42;;;;;;;;;48.00;38.00;;;;;4.45;87.46;100082.81;6310285;20;2853447;-52
2022/04/14 02:25:11;;;;;;;;;42.00;39.50;;;;;4.14;88.42;100081.03;6278269;20;2850320;-54
2022/04/14 02:27:40;;;;;;;;;47.00;39.00;;;;;4.61;86.36;100086.72;6280044;20;2809675;-50
2022/04/14 02:30:10;;;;;;;;;40.67;35.33;;;;;4.11;87.67;100081.13;6276201;20;2862798;-55
2022/04/14 02:32:39;;;;;;;;;40.00;37.00;;;;;4.29;87.45;100077.06;6310160;20;2849257;-51
2022/04/14 02:35:10;;;;;;;;;43.33;39.00;;;;;4.17;87.75;100083.59;6283182;20;2873153;-53
2022/04/14 02:37:39;;;;;;;;;59.33;43.00;;;;;4.24;88.19;100080.75;6313317;20;3642929;-54
2022/04/14 02:40:10;;;;;;;;;38.67;36.67;;;;;4.00;88.59;100077.88;6311938;20;2853135;-53
2022/04/14 02:42:41;;;;;;;;;42.00;33.00;;;;;4.25;88.42;100085.19;6312927;20;3615830;-56
2022/04/14 02:45:10;;;;;;;;;45.00;37.00;;;;;4.22;88.46;100088.78;6313907;20;2855448;-54
2022/04/14 02:47:39;;;;;;;;;50.50;42.00;;;;;4.71;86.72;100083.75;6282227;20;2862737;-51
2022/04/14 02:50:09;;;;;;;;;62.00;45.00;;;;;4.32;87.24;100081.44;6280968;20;3624305;-51
2022/04/14 02:52:38;;;;;;;;;62.00;45.00;;;;;3.94;89.43;100078.06;6309542;20;2873217;-54
2022/04/14 02:55:08;;;;;;;;;43.00;37.00;;;;;4.36;88.72;100081.25;6313378;20;2850250;-53
2022/04/14 02:57:37;;;;;;;;;50.50;42.50;;;;;4.34;86.79;100080.44;6281067;20;2865874;-53
2022/04/14 03:00:11;;;;;;;;;54.00;42.00;;;;;4.49;85.75;100087.09;6277490;20;2495031;-53
2022/04/14 03:02:41;;;;;;;;;44.50;42.50;;;;;4.53;84.93;100083.44;6280917;20;2859724;-53
2022/04/14 03:05:12;;;;;;;;;59.00;47.00;;;;;4.58;84.55;100092.16;6278943;20;2860739;-52
2022/04/14 03:07:40;;;;;;;;;66.50;51.00;;;;;3.99;87.67;100094.75;6281197;20;2875280;-53
2022/04/14 03:10:10;;;;;;;;;39.00;34.00;;;;;4.58;86.56;100091.25;6279781;20;2871080;-53
2022/04/14 03:12:46;;;;;;;;;38.00;32.00;;;;;4.31;86.03;100083.19;6312498;20;2856556;-55
2022/04/14 03:15:16;;;;;;;;;38.00;33.00;;;;;4.00;87.78;100093.81;6282459;20;2860695;-53
2022/04/14 03:17:49;;;;;;;;;57.67;42.67;;;;;4.23;87.84;100089.66;6280716;20;2892012;-51
2022/04/14 03:20:18;;;;;;;;;55.00;44.50;;;;;3.96;88.68;100094.84;6309259;20;2860666;-49
2022/04/14 03:22:46;;;;;;;;;56.50;44.00;;;;;3.77;90.29;100088.31;6282573;20;2882683;-54
2022/04/14 03:25:14;;;;;;;;;39.00;29.50;;;;;3.63;91.07;100083.34;6278466;20;2500242;-55
2022/04/14 03:27:43;;;;;;;;;45.50;40.50;;;;;3.82;90.16;100089.91;6281611;20;2845050;-52
2022/04/14 03:30:12;;;;;;;;;53.50;42.00;;;;;3.63;90.77;100089.53;6281045;20;2884756;-56
2022/04/14 03:32:45;;;;;;;;;54.33;43.00;;;;;3.79;87.96;100083.81;6279296;20;2877370;-52
2022/04/14 03:35:16;;;;;;;;;53.50;43.00;;;;;3.56;89.15;100081.78;6311544;20;2868042;-53
2022/04/14 03:37:46;;;;;;;;;52.33;43.00;;;;;4.33;86.63;100078.69;6279742;20;2870086;-52
2022/04/14 03:40:15;;;;;;;;;62.33;48.67;;;;;3.92;87.56;100085.19;6309020;20;2866156;-55
2022/04/14 03:42:45;;;;;;;;;64.00;46.00;;;;;4.25;86.03;100087.84;6312078;20;3628371;-53
2022/04/14 03:45:14;;;;;;;;;45.67;37.00;;;;;4.33;85.02;100088.47;6312541;20;2850394;-49
2022/04/14 03:47:44;;;;;;;;;66.67;48.00;;;;;4.19;84.05;100088.88;6307390;20;2865876;-56
2022/04/14 03:50:13;;;;;;;;;58.50;44.00;;;;;4.04;86.31;100090.19;6307999;20;2866986;-56
2022/04/14 03:52:41;;;;;;;;;52.00;42.00;;;;;4.32;85.86;100089.41;6278973;20;2873596;-56
2022/04/14 03:55:11;;;;;;;;;41.67;36.33;;;;;4.56;83.36;100098.44;6281255;20;2866036;-53
2022/04/14 03:57:40;;;;;;;;;54.67;41.33;;;;;4.46;84.15;100091.63;6311410;20;3603417;-53
2022/04/14 04:00:10;;;;;;;;;42.00;38.00;;;;;4.27;85.04;100093.97;6310577;20;2856501;-52
2022/04/14 04:02:40;;;;;;;;;55.00;41.33;;;;;3.89;87.98;100093.25;6277509;20;2873306;-52
2022/04/14 04:05:09;;;;;;;;;45.00;38.50;;;;;4.56;84.75;100096.63;6308318;20;2854419;-54
2022/04/14 04:07:38;;;;;;;;;49.50;41.00;;;;;4.09;85.01;100098.91;6280157;20;2853896;-53
2022/04/14 04:10:08;;;;;;;;;47.50;39.50;;;;;4.44;84.96;100104.09;6279549;20;2862778;-55
2022/04/14 04:12:37;;;;;;;;;47.00;38.00;;;;;4.73;83.39;100106.75;6280316;20;2872128;-55
2022/04/14 04:15:07;;;;;;;;;37.00;33.50;;;;;4.38;84.83;100106.03;6309618;20;2854549;-55
2022/04/14 04:17:39;;;;;;;;;38.00;37.00;;;;;4.70;84.92;100111.28;6277414;20;2713771;-53
2022/04/14 04:20:10;;;;;;;;;52.67;39.33;;;;;4.25;86.03;100111.75;6309893;20;3629481;-53
2022/04/14 04:22:40;;;;;;;;;39.67;32.33;;;;;4.71;85.12;100107.69;6308323;20;3611705;-54
2022/04/14 04:25:09;;;;;;;;;37.00;36.50;;;;;4.40;86.00;100119.28;6309632;20;2859676;-55
2022/04/14 04:27:39;;;;;;;;;43.33;36.67;;;;;4.80;84.34;100118.06;6278669;20;2874225;-52
2022/04/14 04:30:09;;;;;;;;;36.33;33.00;;;;;5.09;81.69;100118.94;6307081;20;2858657;-55
2022/04/14 04:32:39;;;;;;;;;45.33;35.00;;;;;4.67;82.73;100117.56;6315561;20;3621173;-55
2022/04/14 04:35:10;;;;;;;;;51.33;38.67;;;;;4.69;84.77;100128.19;6318501;20;3627415;-55
2022/04/14 04:37:39;;;;;;;;;53.50;43.50;;;;;4.57;86.11;100122.28;6314938;20;2844024;-54
2022/04/14 04:40:09;;;;;;;;;51.00;43.00;;;;;4.51;84.65;100117.16;6285746;20;2855500;-55
2022/04/14 04:42:38;;;;;;;;;52.67;42.00;;;;;4.55;86.03;100129.44;6286449;20;2878471;-55
2022/04/14 04:45:07;;;;;;;;;53.50;42.00;;;;;4.19;87.80;100126.09;6312891;20;2865877;-53
2022/04/14 04:47:37;;;;;;;;;52.00;41.67;;;;;4.23;87.54;100134.84;6285262;20;2870099;-53
2022/04/14 04:50:07;;;;;;;;;44.50;42.00;;;;;4.38;86.95;100140.59;6315354;20;2862909;-49
2022/04/14 04:52:36;;;;;;;;;50.50;42.00;;;;;4.60;86.98;100148.78;6283902;20;2873264;-54
2022/04/14 04:55:06;;;;;;;;;47.50;41.00;;;;;5.00;84.60;100146.69;6284146;20;2868115;-53
2022/04/14 04:57:35;;;;;;;;;54.00;45.00;;;;;4.72;85.29;100144.03;6284015;20;2861693;-55
2022/04/14 05:00:07;;;;;;;;;54.67;42.33;;;;;4.47;86.37;100149.19;6283819;20;3625260;-56
2022/04/14 05:02:35;;;;;;;;;54.00;43.00;;;;;5.03;85.66;100155.47;6307727;20;2846085;-50
2022/04/14 05:05:05;;;;;;;;;51.00;42.00;;;;;5.05;84.20;100153.66;6284082;20;2865040;-60
2022/04/14 05:07:34;;;;;;;;;48.00;36.50;;;;;5.02;84.70;100151.06;6281341;20;2860819;-48
2022/04/14 05:10:04;;;;;;;;;49.00;42.00;;;;;5.21;83.30;100158.47;6283264;20;2856542;-55
2022/04/14 05:12:34;;;;;;;;;48.00;44.00;;;;;5.89;82.89;100149.94;6283915;20;2870269;-47
2022/04/14 05:15:04;;;;;;;;;55.00;43.00;;;;;6.19;80.54;100149.84;6314400;20;2866074;-61
2022/04/14 05:17:33;;;;;;;;;55.50;46.50;;;;;6.59;79.00;100156.38;6312684;20;2858612;-48
2022/04/14 05:20:02;;;;;;;;;61.00;49.00;;;;;6.61;79.22;100154.53;6283560;20;2862890;-47
2022/04/14 05:22:31;;;;;;;;;59.67;48.00;;;;;6.42;80.54;100156.97;6286163;20;2873245;-62
2022/04/14 05:25:02;;;;;;;;;59.67;45.00;;;;;6.54;79.78;100153.88;6314790;20;2866912;-56
2022/04/14 05:27:31;;;;;;;;;55.00;44.50;;;;;6.69;79.71;100152.44;6313438;20;2855513;-55
2022/04/14 05:29:59;;;;;;;;;57.50;45.00;;;;;6.93;80.13;100163.09;6284296;20;2863803;-54
2022/04/14 05:32:28;;;;;;;;;56.50;45.50;;;;;7.35;77.13;100167.66;6282838;20;2854494;-57
2022/04/14 05:34:58;;;;;;;;;53.33;44.67;;;;;7.28;78.75;100166.16;6282660;20;2872235;-57
2022/04/14 05:37:26;;;;;;;;;58.00;43.00;;;;;7.55;77.02;100161.47;6314980;20;2870119;-55
2022/04/14 05:39:55;;;;;;;;;59.50;45.50;;;;;7.11;79.03;100169.47;6282074;20;2860767;-56
2022/04/14 05:42:25;;;;;;;;;51.00;44.00;;;;;7.11;80.08;100170.38;6282340;20;2869267;-58
2022/04/14 05:44:54;;;;;;;;;56.00;44.00;;;;;7.36;78.63;100164.03;6316124;20;3497149;-56
2022/04/14 05:47:24;;;;;;;;;55.00;47.00;;;;;7.76;77.73;100167.72;6311573;20;2861747;-56
2022/04/14 05:49:54;;;;;;;;;57.50;44.00;;;;;7.70;78.22;100180.41;6283096;20;2859679;-52
2022/04/14 05:52:23;;;;;;;;;55.00;45.00;;;;;8.06;76.97;100181.59;6284102;20;2862785;-55
2022/04/14 05:54:52;;;;;;;;;57.67;44.00;;;;;9.29;71.21;100176.00;6284230;20;2859658;-54
2022/04/14 05:57:22;;;;;;;;;54.00;45.00;;;;;10.04;68.29;100180.31;6314989;20;2845130;-53
2022/04/14 05:59:51;;;;;;;;;47.00;40.00;;;;;10.13;65.89;100179.81;6282013;20;2850231;-55
2022/04/14 06:02:20;;;;;;;;;49.50;40.00;;;;;10.81;62.80;100184.31;6285147;20;2855481;-62
2022/04/14 06:04:49;;;;;;;;;40.33;33.00;;;;;11.25;59.37;100189.94;6285754;20;3608551;-62
2022/04/14 06:07:17;;;;;;;;;37.00;34.00;;;;;11.28;58.44;100189.75;6282992;20;2837809;-62
2022/04/14 06:09:46;;;;;;;;;43.50;36.00;;;;;11.68;57.12;100194.66;6281564;20;2865975;-62
2022/04/14 06:12:16;;;;;;;;;39.00;33.00;;;;;12.66;54.93;100196.88;6283373;20;2863830;-62
2022/04/14 06:14:52;;;;;;;;;47.67;36.33;;;;;13.01;53.68;100192.00;6310723;20;3628375;-63
2022/04/14 06:17:21;;;;;;;;;42.67;36.00;;;;;13.63;52.97;100201.53;6317320;20;3594002;-62
2022/04/14 06:19:50;;;;;;;;;48.33;36.67;;;;;14.04;52.16;100196.06;6281189;20;3636677;-62
2022/04/14 06:22:19;;;;;;;;;39.67;32.67;;;;;13.69;52.79;100198.41;6317908;20;3623233;-63
2022/04/14 06:24:48;;;;;;;;;42.33;36.00;;;;;13.44;54.09;100201.88;6285947;20;3610654;-64
2022/04/14 06:27:17;;;;;;;;;39.33;34.33;;;;;14.82;51.08;100200.59;6285951;20;3606514;-63
2022/04/14 06:29:45;;;;;;;;;34.67;32.00;;;;;16.52;45.71;100208.75;6284554;20;3600258;-63
2022/04/14 06:32:14;;;;;;;;;37.33;33.33;;;;;17.55;43.60;100201.41;6281935;20;3617968;-61
2022/04/14 06:34:44;;;;;;;;;35.33;33.00;;;;;18.37;41.12;100207.16;6283140;20;3612879;-61
2022/04/14 06:37:12;;;;;;;;;31.00;30.33;;;;;18.03;41.19;100209.19;6284727;20;3589800;-61
2022/04/14 06:39:42;;;;;;;;;33.33;31.00;;;;;18.26;41.31;100212.66;6283817;20;3595101;-61
2022/04/14 06:42:10;;;;;;;;;34.33;32.33;;;;;17.72;43.01;100217.16;6284704;20;3595005;-61
2022/04/14 06:44:39;;;;;;;;;27.00;26.00;;;;;19.12;40.27;100212.53;6284993;20;3583995;-61
2022/04/14 06:47:08;;;;;;;;;33.33;31.67;;;;;18.33;40.94;100211.16;6282099;20;3601277;-61
2022/04/14 06:49:37;;;;;;;;;36.33;32.00;;;;;18.65;40.54;100205.66;6315747;20;3601268;-61
2022/04/14 06:52:06;;;;;;;;;33.67;31.67;;;;;20.24;38.61;100216.81;6286852;20;3600279;-62
2022/04/14 06:54:35;;;;;;;;;32.67;29.33;;;;;19.70;38.36;100215.47;6284115;20;3594097;-62
2022/04/14 06:57:04;;;;;;;;;29.00;28.33;;;;;19.33;40.01;100199.72;6284930;20;3589889;-62
2022/04/14 06:59:33;;;;;;;;;33.00;30.00;;;;;17.62;43.57;100209.91;6281919;20;3604441;-62
2022/04/14 07:02:02;;;;;;;;;36.00;30.00;;;;;16.62;45.83;100204.34;6282296;20;2860954;-62
2022/04/14 07:04:33;;;;;;;;;34.75;31.50;;;;;15.54;49.20;100211.63;6315707;20;3609548;-61
2022/04/14 07:07:05;;;;;;;;;31.43;29.43;;;;;15.82;49.81;100202.31;6333964;20;3583604;-61
2022/04/14 07:09:34;;;;;;;;;33.00;30.00;;;;;14.84;50.97;100199.50;6283929;20;3594004;-61
2022/04/14 07:12:04;;;;;;;;;21.00;20.00;;;;;15.55;48.36;100207.91;6284739;20;3572162;-60
2022/04/14 07:14:33;;;;;;;;;24.67;22.00;;;;;14.61;48.77;100200.25;6317298;20;3580467;-63
2022/04/14 07:17:02;;;;;;;;;19.00;19.00;;;;;14.85;48.79;100213.88;6281256;20;2833627;-63
2022/04/14 07:19:31;;;;;;;;;25.67;24.33;;;;;16.14;46.78;100210.72;6280314;20;3602474;-64
2022/04/14 07:22:00;;;;;;;;;29.33;26.33;;;;;20.01;38.99;100223.53;6312420;20;3600254;-61
2022/04/14 07:24:29;;;;;;;;;27.33;27.33;;;;;22.49;34.68;100225.81;6284649;20;3588790;-61
2022/04/14 07:26:57;;;;;;;;;26.67;25.67;;;;;21.29;35.18;100228.69;6286848;20;3598160;-61
2022/04/14 07:29:26;;;;;;;;;23.33;22.33;;;;;20.99;34.40;100228.81;6280777;20;3589870;-61
2022/04/14 07:31:55;;;;;;;;;29.67;25.33;;;;;17.98;41.81;100217.75;6285224;20;3600255;-61
2022/04/14 07:34:24;;;;;;;;;26.33;24.33;;;;;18.24;38.94;100216.50;6278650;20;3595039;-61
2022/04/14 07:36:53;;;;;;;;;24.00;19.00;;;;;17.15;40.05;100226.38;6315365;20;3582575;-61
2022/04/14 07:39:22;;;;;;;;;21.00;21.00;;;;;16.48;40.95;100213.53;6279933;20;2841939;-61
2022/04/14 07:41:51;;;;;;;;;25.00;21.00;;;;;16.17;42.19;100220.47;6279938;20;2833726;-63
2022/04/14 07:44:20;;;;;;;;;18.50;18.50;;;;;16.09;42.07;100215.63;6280392;20;2831497;-63
2022/04/14 07:46:47;;;;;;;;;21.00;18.00;;;;;15.79;42.45;100211.53;6282199;20;2483705;-63
2022/04/14 07:49:16;;;;;;;;;18.00;18.00;;;;;15.19;43.41;100201.50;6278513;20;2839951;-63
2022/04/14 07:51:45;;;;;;;;;15.67;14.00;;;;;15.21;42.74;100204.13;6283278;20;3529435;-63
2022/04/14 07:54:13;;;;;;;;;16.00;16.00;;;;;15.52;43.15;100202.75;6314052;20;3546048;-63
2022/04/14 07:56:41;;;;;;;;;18.00;15.00;;;;;15.71;41.76;100203.13;6283277;20;2500274;-63
2022/04/14 07:59:10;;;;;;;;;20.50;18.00;;;;;15.98;42.50;100199.31;6278157;20;2832637;-63
2022/04/14 08:01:38;;;;;;;;;22.00;19.00;;;;;16.58;40.82;100206.41;6278781;20;2487777;-63
2022/04/14 08:04:06;;;;;;;;;22.00;20.00;;;;;17.16;40.25;100206.38;6282314;20;2844103;-63
2022/04/14 08:06:35;;;;;;;;;19.00;17.00;;;;;17.37;38.44;100214.63;6279922;20;2837810;-64
2022/04/14 08:09:06;;;;;;;;;18.00;17.00;;;;;17.93;37.28;100208.22;6280798;20;2491921;-63
2022/04/14 08:11:35;;;;;;;;;24.00;18.00;;;;;16.95;39.63;100210.81;6280812;20;2832600;-64
2022/04/14 08:14:04;;;;;;;;;18.50;17.50;;;;;17.66;37.94;100212.22;6280081;20;2832545;-64
2022/04/14 08:16:32;;;;;;;;;18.00;16.00;;;;;17.88;36.99;100210.50;6278350;20;2835672;-64
2022/04/14 08:19:01;;;;;;;;;14.00;11.00;;;;;17.61;35.30;100209.03;6279113;20;2785664;-62
2022/04/14 08:21:29;;;;;;;;;13.50;12.00;;;;;17.66;35.43;100212.22;6317045;20;2796080;-63
2022/04/14 08:23:58;;;;;;;;;15.00;14.00;;;;;17.53;33.89;100206.09;6287013;20;2821103;-63
2022/04/14 08:26:27;;;;;;;;;15.00;13.00;;;;;18.56;34.71;100195.59;6281406;20;3534670;-63
2022/04/14 08:28:56;;;;;;;;;13.33;13.00;;;;;18.26;34.71;100195.50;6280591;20;3525295;-63
2022/04/14 08:31:27;;;;;;;;;16.00;14.00;;;;;19.44;33.98;100207.78;6279637;20;2804426;-63
2022/04/14 08:33:56;;;;;;;;;15.00;14.00;;;;;18.82;33.05;100206.06;6276168;20;2637815;-64
2022/04/14 08:36:25;;;;;;;;;10.00;8.67;;;;;17.83;32.24;100204.59;6310225;20;3480586;-62
2022/04/14 08:38:56;;;;;;;;;9.60;6.80;;;;;18.15;31.75;100207.28;6337649;20;2754458;-63
2022/04/14 08:41:32;;;;;;;;;11.67;11.67;;;;;18.69;33.51;100206.22;6278358;20;3515891;-61
2022/04/14 08:44:02;;;;;;;;;14.33;13.67;;;;;18.47;32.84;100207.25;6308718;20;3529414;-63
2022/04/14 08:46:32;;;;;;;;;15.00;15.00;;;;;18.48;31.73;100203.53;6311613;20;3537808;-64
2022/04/14 08:49:01;;;;;;;;;12.33;11.00;;;;;19.68;30.34;100201.97;6275004;20;3517928;-64
2022/04/14 08:51:38;;;;;;;;;9.80;9.80;;;;;19.41;29.54;100210.78;6336609;20;2791927;-64
2022/04/14 08:54:09;;;;;;;;;10.20;9.20;;;;;19.46;30.89;100208.50;6307474;20;2788171;-64
2022/04/14 08:56:37;;;;;;;;;9.00;8.00;;;;;19.88;27.58;100216.50;6280912;20;2757684;-64
2022/04/14 08:59:06;;;;;;;;;5.00;5.00;;;;;19.25;26.28;100205.00;6285136;20;2741069;-63
2022/04/14 09:01:36;;;;;;;;;8.00;8.00;;;;;19.48;25.67;100203.78;6283462;20;2731613;-64
2022/04/14 09:04:08;;;;;;;;;9.00;9.00;;;;;19.79;26.39;100200.13;6305155;20;2757066;-64
2022/04/14 09:06:37;;;;;;;;;6.80;6.80;;;;;19.65;24.98;100206.84;6302336;20;2740942;-61
2022/04/14 09:09:06;;;;;;;;;9.00;7.33;;;;;20.51;27.02;100209.75;6310584;20;2748244;-61
2022/04/14 09:11:36;;;;;;;;;8.00;8.00;;;;;19.91;26.11;100212.66;6333779;20;2747233;-62
2022/04/14 09:14:05;;;;;;;;;9.20;9.00;;;;;19.37;26.36;100201.16;6303978;20;2760706;-64
2022/04/14 09:16:36;;;;;;;;;9.60;9.60;;;;;20.04;25.31;100212.38;6300646;20;2760726;-61
2022/04/14 09:19:05;;;;;;;;;8.80;8.80;;;;;20.12;26.99;100201.63;6309923;20;2752408;-61
2022/04/14 09:21:34;;;;;;;;;8.33;8.33;;;;;20.06;26.30;100197.56;6283143;20;2735711;-64
2022/04/14 09:24:04;;;;;;;;;7.60;7.60;;;;;20.43;27.17;100198.72;6340018;20;2733606;-64
2022/04/14 09:26:32;;;;;;;;;9.33;9.33;;;;;20.24;26.06;100197.72;6314129;20;2773316;-64
2022/04/14 09:29:10;;;;;;;;;16.00;9.67;;;;;20.61;28.17;100195.13;6314076;20;3515933;-62
2022/04/14 09:32:06;;;;;;;;;10.00;10.00;;;;;20.75;28.11;100191.09;6320818;20;2781499;-63
2022/04/14 09:34:51;;;;;;;;;10.00;10.00;;;;;20.44;27.00;100195.84;6319605;20;2791910;-63
2022/04/14 09:37:20;;;;;;;;;12.67;12.67;;;;;20.80;29.65;100186.03;6317765;20;3515888;-63
2022/04/14 09:40:02;;;;;;;;;10.67;10.67;;;;;20.12;28.07;100185.25;6315395;20;2815040;-63
2022/04/14 09:42:34;;;;;;;;;11.67;11.00;;;;;20.80;27.92;100177.84;6315825;20;3513824;-63
2022/04/14 09:45:29;;;;;;;;;10.00;9.00;;;;;21.07;27.89;100184.38;6342787;20;2755548;-63
2022/04/14 09:48:17;;;;;;;;;15.00;14.33;;;;;21.48;27.28;100184.91;6313552;20;3528435;-63
2022/04/14 09:50:49;;;;;;;;;11.33;10.00;;;;;20.62;26.90;100193.28;6319461;20;2792472;-62
2022/04/14 09:53:22;;;;;;;;;10.33;9.67;;;;;20.28;25.21;100187.41;6316747;20;2764859;-63
2022/04/14 09:55:50;;;;;;;;;7.67;7.67;;;;;20.50;25.75;100184.34;6315097;20;2736717;-63
2022/04/14 09:58:23;;;;;;;;;6.60;6.60;;;;;20.13;25.78;100186.97;6344572;20;2746109;-63
2022/04/14 10:00:58;;;;;;;;;7.67;6.00;;;;;20.71;24.95;100186.91;6317327;20;2741948;-63
2022/04/14 10:03:32;;;;;;;;;9.20;8.20;;;;;20.97;22.96;100189.00;6340640;20;2761767;-63
2022/04/14 10:06:06;;;;;;;;;5.00;4.00;;;;;20.41;24.26;100187.09;6287398;20;2754413;-63
2022/04/14 10:08:51;;;;;;;;;7.00;6.60;;;;;20.51;23.91;100169.72;6341816;20;2748271;-63
2022/04/14 10:11:29;;;;;;;;;6.00;6.00;;;;;20.50;23.06;100188.94;6311249;20;2736703;-63
2022/04/14 10:14:23;;;;;;;;;8.33;7.00;;;;;21.27;24.89;100176.94;6312449;20;2744562;-63
2022/04/14 10:16:53;;;;;;;;;6.40;6.20;;;;;20.27;23.20;100172.88;6339553;20;2731534;-63
2022/04/14 10:19:21;;;;;;;;;4.67;4.67;;;;;21.12;24.21;100175.75;6315175;20;2749209;-63
2022/04/14 10:21:53;;;;;;;;;6.20;5.00;;;;;21.72;23.14;100162.44;6339242;20;2743050;-63
2022/04/14 10:24:24;;;;;;;;;7.33;6.33;;;;;21.16;22.55;100169.81;6314574;20;2753375;-63
2022/04/14 10:26:54;;;;;;;;;8.20;6.20;;;;;20.99;23.28;100162.41;6339373;20;2742981;-63
2022/04/14 10:29:25;;;;;;;;;7.00;6.00;;;;;20.92;22.40;100153.97;6305836;20;2748211;-63
2022/04/14 10:31:57;;;;;;;;;7.20;5.40;;;;;21.19;22.57;100161.31;6339095;20;2737868;-63
2022/04/14 10:34:26;;;;;;;;;6.00;6.00;;;;;21.05;23.30;100153.63;6314223;20;2734623;-63
2022/04/14 10:36:56;;;;;;;;;5.20;5.20;;;;;21.42;21.99;100156.31;6341248;20;2739963;-63
2022/04/14 10:39:28;;;;;;;;;5.20;5.00;;;;;21.24;23.39;100152.66;6336384;20;2732545;-63
2022/04/14 10:42:01;;;;;;;;;6.80;6.80;;;;;21.31;22.28;100156.50;6340874;20;2744487;-63
2022/04/14 10:44:51;;;;;;;;;9.00;6.40;;;;;21.54;22.89;100147.91;6339397;20;2747114;-63
2022/04/14 10:47:54;;;;;;;;;8.00;8.00;;;;;21.78;22.60;100141.88;6342780;20;2745140;-63
2022/04/14 10:50:34;;;;;;;;;7.80;7.20;;;;;21.52;22.86;100149.97;6341057;20;2730554;-63
2022/04/14 10:53:17;;;;;;;;;8.80;7.60;;;;;21.13;23.23;100137.34;6338994;20;2739971;-64
2022/04/14 10:55:50;;;;;;;;;7.00;7.00;;;;;21.08;22.58;100139.66;6337900;20;2737795;-64
2022/04/14 10:58:40;;;;;;;;;7.60;6.20;;;;;21.16;22.37;100145.22;6335950;20;2743024;-63
2022/04/14 11:01:14;;;;;;;;;8.40;6.60;;;;;21.17;22.83;100138.78;6340681;20;2740946;-63
2022/04/14 11:03:52;;;;;;;;;4.40;4.00;;;;;21.47;20.61;100155.88;6340244;20;2752529;-63
2022/04/14 11:06:40;;;;;;;;;6.20;5.00;;;;;22.32;22.39;100156.38;6307830;20;2742955;-64
2022/04/14 11:09:38;;;;;;;;;6.00;3.33;;;;;21.78;22.05;100148.19;6286727;20;2752371;-63
2022/04/14 11:12:28;;;;;;;;;10.60;6.40;;;;;21.11;21.91;100147.53;6341411;20;2769029;-57
2022/04/14 11:15:03;;;;;;;;;6.00;6.00;;;;;21.38;22.86;100148.59;6307863;20;2743069;-57
2022/04/14 11:17:38;;;;;;;;;4.00;4.00;;;;;21.55;21.37;100146.91;6314297;20;2754528;-56